sensor_id;sensor_type;location;lat;lon;timestamp;temperature;humidity
4566;DHT22;2295;51.050;14.608;2022-12-24T00:01:35;7.30;99.90
4566;DHT22;2295;51.050;14.608;2022-12-24T00:04:04;7.30;99.90
4566;DHT22;2295;51.050;14.608;2022-12-24T00:06:32;7.30;99.90
4566;DHT22;2295;51.050;14.608;2022-12-24T00:09:02;7.30;99.90
4566;DHT22;2295;51.050;14.608;2022-12-24T00:11:31;7.30;99.90
4566;DHT22;2295;51.050;14.608;2022-12-24T00:14:00;7.30;99.90
4566;DHT22;2295;51.050;14.608;2022-12-24T00:16:28;7.20;99.90
4566;DHT22;2295;51.050;14.608;2022-12-24T00:18:56;7.10;99.90
4566;DHT22;2295;51.050;14.608;2022-12-24T00:21:25;7.10;99.90
4566;DHT22;2295;51.050;14.608;2022-12-24T00:23:53;7.00;99.90
4566;DHT22;2295;51.050;14.608;2022-12-24T00:26:23;7.00;99.90
4566;DHT22;2295;51.050;14.608;2022-12-24T00:28:52;6.90;99.90
4566;DHT22;2295;51.050;14.608;2022-12-24T00:31:20;6.90;99.90
4566;DHT22;2295;51.050;14.608;2022-12-24T00:33:49;6.90;99.90
4566;DHT22;2295;51.050;14.608;2022-12-24T00:36:19;6.90;99.90
4566;DHT22;2295;51.050;14.608;2022-12-24T00:38:47;6.90;99.90
4566;DHT22;2295;51.050;14.608;2022-12-24T00:41:16;6.90;99.90
4566;DHT22;2295;51.050;14.608;2022-12-24T00:43:58;7.00;99.90
4566;DHT22;2295;51.050;14.608;2022-12-24T00:46:28;7.00;99.90
4566;DHT22;2295;51.050;14.608;2022-12-24T00:48:57;7.10;99.90
4566;DHT22;2295;51.050;14.608;2022-12-24T00:51:26;7.20;99.90
4566;DHT22;2295;51.050;14.608;2022-12-24T00:53:55;7.20;99.90
4566;DHT22;2295;51.050;14.608;2022-12-24T00:56:24;7.30;99.90
4566;DHT22;2295;51.050;14.608;2022-12-24T00:58:53;7.30;99.90
4566;DHT22;2295;51.050;14.608;2022-12-24T01:01:23;7.40;99.90
4566;DHT22;2295;51.050;14.608;2022-12-24T01:03:52;7.40;99.90
4566;DHT22;2295;51.050;14.608;2022-12-24T01:06:41;7.40;99.90
4566;DHT22;2295;51.050;14.608;2022-12-24T01:09:08;7.50;99.90
4566;DHT22;2295;51.050;14.608;2022-12-24T01:11:37;7.50;99.90
4566;DHT22;2295;51.050;14.608;2022-12-24T01:14:05;7.50;99.90
4566;DHT22;2295;51.050;14.608;2022-12-24T01:16:36;7.60;99.90
4566;DHT22;2295;51.050;14.608;2022-12-24T01:19:04;7.70;99.90
4566;DHT22;2295;51.050;14.608;2022-12-24T01:21:33;7.70;99.90
4566;DHT22;2295;51.050;14.608;2022-12-24T01:24:02;7.70;99.90
4566;DHT22;2295;51.050;14.608;2022-12-24T01:26:30;7.70;99.90
4566;DHT22;2295;51.050;14.608;2022-12-24T01:28:59;7.70;99.90
4566;DHT22;2295;51.050;14.608;2022-12-24T01:31:27;7.80;99.90
4566;DHT22;2295;51.050;14.608;2022-12-24T01:33:58;7.80;99.90
4566;DHT22;2295;51.050;14.608;2022-12-24T01:36:26;7.80;99.90
4566;DHT22;2295;51.050;14.608;2022-12-24T01:38:55;7.80;99.90
4566;DHT22;2295;51.050;14.608;2022-12-24T01:41:24;7.80;99.90
4566;DHT22;2295;51.050;14.608;2022-12-24T01:44:21;7.80;99.90
4566;DHT22;2295;51.050;14.608;2022-12-24T01:47:05;7.80;99.90
4566;DHT22;2295;51.050;14.608;2022-12-24T01:49:38;7.80;99.90
4566;DHT22;2295;51.050;14.608;2022-12-24T01:52:11;7.80;99.90
4566;DHT22;2295;51.050;14.608;2022-12-24T01:54:44;7.90;99.90
4566;DHT22;2295;51.050;14.608;2022-12-24T01:57:18;7.90;99.90
4566;DHT22;2295;51.050;14.608;2022-12-24T01:59:52;7.90;99.90
4566;DHT22;2295;51.050;14.608;2022-12-24T02:02:24;7.80;99.90
4566;DHT22;2295;51.050;14.608;2022-12-24T02:04:58;7.80;99.90
4566;DHT22;2295;51.050;14.608;2022-12-24T02:07:29;7.80;99.90
4566;DHT22;2295;51.050;14.608;2022-12-24T02:09:59;7.80;99.90
4566;DHT22;2295;51.050;14.608;2022-12-24T02:12:31;7.80;99.90
4566;DHT22;2295;51.050;14.608;2022-12-24T02:15:02;7.80;99.90
4566;DHT22;2295;51.050;14.608;2022-12-24T02:17:36;7.80;99.90
4566;DHT22;2295;51.050;14.608;2022-12-24T02:23:27;7.80;99.90
4566;DHT22;2295;51.050;14.608;2022-12-24T02:26:22;7.90;99.90
4566;DHT22;2295;51.050;14.608;2022-12-24T02:29:13;8.00;99.90
4566;DHT22;2295;51.050;14.608;2022-12-24T02:31:50;7.90;99.90
4566;DHT22;2295;51.050;14.608;2022-12-24T02:34:26;7.80;99.90
4566;DHT22;2295;51.050;14.608;2022-12-24T02:37:01;7.90;99.90
4566;DHT22;2295;51.050;14.608;2022-12-24T02:39:37;7.90;99.90
4566;DHT22;2295;51.050;14.608;2022-12-24T02:42:08;8.00;99.90
4566;DHT22;2295;51.050;14.608;2022-12-24T02:44:42;8.00;99.90
4566;DHT22;2295;51.050;14.608;2022-12-24T02:47:14;8.00;99.90
4566;DHT22;2295;51.050;14.608;2022-12-24T02:49:44;8.00;99.90
4566;DHT22;2295;51.050;14.608;2022-12-24T02:52:31;7.90;99.90
4566;DHT22;2295;51.050;14.608;2022-12-24T02:55:04;7.80;99.90
4566;DHT22;2295;51.050;14.608;2022-12-24T02:57:44;7.80;99.90
4566;DHT22;2295;51.050;14.608;2022-12-24T03:00:18;7.80;99.90
4566;DHT22;2295;51.050;14.608;2022-12-24T03:03:01;7.80;99.90
4566;DHT22;2295;51.050;14.608;2022-12-24T03:05:38;7.80;99.90
4566;DHT22;2295;51.050;14.608;2022-12-24T03:08:14;7.80;99.90
4566;DHT22;2295;51.050;14.608;2022-12-24T03:10:51;7.80;99.90
4566;DHT22;2295;51.050;14.608;2022-12-24T03:13:22;7.80;99.90
4566;DHT22;2295;51.050;14.608;2022-12-24T03:15:51;7.80;99.90
4566;DHT22;2295;51.050;14.608;2022-12-24T03:18:23;7.70;99.90
4566;DHT22;2295;51.050;14.608;2022-12-24T03:20:57;7.70;99.90
4566;DHT22;2295;51.050;14.608;2022-12-24T03:23:26;7.60;99.90
4566;DHT22;2295;51.050;14.608;2022-12-24T03:25:54;7.70;99.90
4566;DHT22;2295;51.050;14.608;2022-12-24T03:28:25;7.70;99.90
4566;DHT22;2295;51.050;14.608;2022-12-24T03:30:54;7.70;99.90
4566;DHT22;2295;51.050;14.608;2022-12-24T03:33:24;7.80;99.90
4566;DHT22;2295;51.050;14.608;2022-12-24T03:35:52;7.80;99.90
4566;DHT22;2295;51.050;14.608;2022-12-24T03:38:21;7.80;99.90
4566;DHT22;2295;51.050;14.608;2022-12-24T03:40:50;7.80;99.90
4566;DHT22;2295;51.050;14.608;2022-12-24T03:43:18;7.80;99.90
4566;DHT22;2295;51.050;14.608;2022-12-24T03:45:47;7.80;99.90
4566;DHT22;2295;51.050;14.608;2022-12-24T03:48:16;7.70;99.90
4566;DHT22;2295;51.050;14.608;2022-12-24T03:50:46;7.70;99.90
4566;DHT22;2295;51.050;14.608;2022-12-24T03:53:15;7.60;99.90
4566;DHT22;2295;51.050;14.608;2022-12-24T03:55:43;7.70;99.90
4566;DHT22;2295;51.050;14.608;2022-12-24T03:58:12;7.70;99.90
4566;DHT22;2295;51.050;14.608;2022-12-24T04:00:40;7.70;99.90
4566;DHT22;2295;51.050;14.608;2022-12-24T04:03:09;7.80;99.90
4566;DHT22;2295;51.050;14.608;2022-12-24T04:05:37;7.70;99.90
4566;DHT22;2295;51.050;14.608;2022-12-24T04:08:08;7.70;99.90
4566;DHT22;2295;51.050;14.608;2022-12-24T04:10:36;7.70;99.90
4566;DHT22;2295;51.050;14.608;2022-12-24T04:13:05;7.70;99.90
4566;DHT22;2295;51.050;14.608;2022-12-24T04:15:34;7.70;99.90
4566;DHT22;2295;51.050;14.608;2022-12-24T04:18:02;7.70;99.90
4566;DHT22;2295;51.050;14.608;2022-12-24T04:20:31;7.70;99.90
4566;DHT22;2295;51.050;14.608;2022-12-24T04:23:00;7.60;99.90
4566;DHT22;2295;51.050;14.608;2022-12-24T04:25:30;7.60;99.90
4566;DHT22;2295;51.050;14.608;2022-12-24T04:27:59;7.60;99.90
4566;DHT22;2295;51.050;14.608;2022-12-24T04:30:29;7.60;99.90
4566;DHT22;2295;51.050;14.608;2022-12-24T04:32:59;7.60;99.90
4566;DHT22;2295;51.050;14.608;2022-12-24T04:35:29;7.60;99.90
4566;DHT22;2295;51.050;14.608;2022-12-24T04:37:57;7.60;99.90
4566;DHT22;2295;51.050;14.608;2022-12-24T04:40:26;7.60;99.90
4566;DHT22;2295;51.050;14.608;2022-12-24T04:42:56;7.60;99.90
4566;DHT22;2295;51.050;14.608;2022-12-24T04:45:25;7.60;99.90
4566;DHT22;2295;51.050;14.608;2022-12-24T04:47:54;7.60;99.90
4566;DHT22;2295;51.050;14.608;2022-12-24T04:50:23;7.60;99.90
4566;DHT22;2295;51.050;14.608;2022-12-24T04:52:51;7.60;99.90
4566;DHT22;2295;51.050;14.608;2022-12-24T04:55:20;7.60;99.90
4566;DHT22;2295;51.050;14.608;2022-12-24T04:57:49;7.60;99.90
4566;DHT22;2295;51.050;14.608;2022-12-24T05:00:21;7.50;99.90
4566;DHT22;2295;51.050;14.608;2022-12-24T05:02:49;7.60;99.90
4566;DHT22;2295;51.050;14.608;2022-12-24T05:05:18;7.60;99.90
4566;DHT22;2295;51.050;14.608;2022-12-24T05:07:47;7.60;99.90
4566;DHT22;2295;51.050;14.608;2022-12-24T05:10:18;7.60;99.90
4566;DHT22;2295;51.050;14.608;2022-12-24T05:12:46;7.60;99.90
4566;DHT22;2295;51.050;14.608;2022-12-24T05:15:15;7.70;99.90
4566;DHT22;2295;51.050;14.608;2022-12-24T05:17:45;7.70;99.90
4566;DHT22;2295;51.050;14.608;2022-12-24T05:20:14;7.70;99.90
4566;DHT22;2295;51.050;14.608;2022-12-24T05:22:42;7.70;99.90
4566;DHT22;2295;51.050;14.608;2022-12-24T05:25:32;7.80;99.90
4566;DHT22;2295;51.050;14.608;2022-12-24T05:28:21;7.80;99.90
4566;DHT22;2295;51.050;14.608;2022-12-24T05:30:50;7.80;99.90
4566;DHT22;2295;51.050;14.608;2022-12-24T05:33:20;7.80;99.90
4566;DHT22;2295;51.050;14.608;2022-12-24T05:35:50;7.80;99.90
4566;DHT22;2295;51.050;14.608;2022-12-24T05:38:19;7.80;99.90
4566;DHT22;2295;51.050;14.608;2022-12-24T05:40:47;7.70;99.90
4566;DHT22;2295;51.050;14.608;2022-12-24T05:43:16;7.70;99.90
4566;DHT22;2295;51.050;14.608;2022-12-24T05:45:44;7.70;99.90
4566;DHT22;2295;51.050;14.608;2022-12-24T05:48:13;7.80;99.90
4566;DHT22;2295;51.050;14.608;2022-12-24T05:50:43;7.70;99.90
4566;DHT22;2295;51.050;14.608;2022-12-24T05:53:12;7.70;99.90
4566;DHT22;2295;51.050;14.608;2022-12-24T05:55:40;7.80;99.90
4566;DHT22;2295;51.050;14.608;2022-12-24T05:58:09;7.80;99.90
4566;DHT22;2295;51.050;14.608;2022-12-24T06:00:41;7.70;99.90
4566;DHT22;2295;51.050;14.608;2022-12-24T06:03:14;7.80;99.90
4566;DHT22;2295;51.050;14.608;2022-12-24T06:05:47;7.70;99.90
4566;DHT22;2295;51.050;14.608;2022-12-24T06:08:31;7.80;99.90
4566;DHT22;2295;51.050;14.608;2022-12-24T06:11:08;7.80;99.90
4566;DHT22;2295;51.050;14.608;2022-12-24T06:13:39;7.80;99.90
4566;DHT22;2295;51.050;14.608;2022-12-24T06:16:10;7.90;99.90
4566;DHT22;2295;51.050;14.608;2022-12-24T06:18:45;7.90;99.90
4566;DHT22;2295;51.050;14.608;2022-12-24T06:21:22;7.80;99.90
4566;DHT22;2295;51.050;14.608;2022-12-24T06:24:03;7.80;99.90
4566;DHT22;2295;51.050;14.608;2022-12-24T06:26:47;7.80;99.90
4566;DHT22;2295;51.050;14.608;2022-12-24T06:29:16;7.70;99.90
4566;DHT22;2295;51.050;14.608;2022-12-24T06:31:45;7.70;99.90
4566;DHT22;2295;51.050;14.608;2022-12-24T06:34:19;7.70;99.90
4566;DHT22;2295;51.050;14.608;2022-12-24T06:37:04;7.70;99.90
4566;DHT22;2295;51.050;14.608;2022-12-24T06:39:33;7.70;99.90
4566;DHT22;2295;51.050;14.608;2022-12-24T06:42:01;7.60;99.90
4566;DHT22;2295;51.050;14.608;2022-12-24T06:44:30;7.60;99.90
4566;DHT22;2295;51.050;14.608;2022-12-24T06:46:59;7.60;99.90
4566;DHT22;2295;51.050;14.608;2022-12-24T06:49:27;7.60;99.90
4566;DHT22;2295;51.050;14.608;2022-12-24T06:51:56;7.60;99.90
4566;DHT22;2295;51.050;14.608;2022-12-24T06:54:26;7.60;99.90
4566;DHT22;2295;51.050;14.608;2022-12-24T06:56:54;7.50;99.90
4566;DHT22;2295;51.050;14.608;2022-12-24T06:59:23;7.50;99.90
4566;DHT22;2295;51.050;14.608;2022-12-24T07:01:52;7.40;99.90
4566;DHT22;2295;51.050;14.608;2022-12-24T07:04:21;7.40;99.90
4566;DHT22;2295;51.050;14.608;2022-12-24T07:06:49;7.30;99.90
4566;DHT22;2295;51.050;14.608;2022-12-24T07:09:18;7.30;99.90
4566;DHT22;2295;51.050;14.608;2022-12-24T07:11:47;7.20;99.90
4566;DHT22;2295;51.050;14.608;2022-12-24T07:14:16;7.20;99.90
4566;DHT22;2295;51.050;14.608;2022-12-24T07:16:45;7.20;99.90
4566;DHT22;2295;51.050;14.608;2022-12-24T07:19:18;7.10;99.90
4566;DHT22;2295;51.050;14.608;2022-12-24T07:21:46;7.10;99.90
4566;DHT22;2295;51.050;14.608;2022-12-24T07:24:16;7.10;99.90
4566;DHT22;2295;51.050;14.608;2022-12-24T07:26:47;7.10;99.90
4566;DHT22;2295;51.050;14.608;2022-12-24T07:29:16;7.10;99.90
4566;DHT22;2295;51.050;14.608;2022-12-24T07:31:45;7.10;99.90
4566;DHT22;2295;51.050;14.608;2022-12-24T07:34:14;7.10;99.90
4566;DHT22;2295;51.050;14.608;2022-12-24T07:36:43;7.10;99.90
4566;DHT22;2295;51.050;14.608;2022-12-24T07:39:12;7.10;99.90
4566;DHT22;2295;51.050;14.608;2022-12-24T07:41:40;7.20;99.90
4566;DHT22;2295;51.050;14.608;2022-12-24T07:44:12;7.20;99.90
4566;DHT22;2295;51.050;14.608;2022-12-24T07:46:41;7.20;99.90
4566;DHT22;2295;51.050;14.608;2022-12-24T07:49:10;7.20;99.90
4566;DHT22;2295;51.050;14.608;2022-12-24T07:51:39;7.20;99.90
4566;DHT22;2295;51.050;14.608;2022-12-24T07:54:08;7.20;99.90
4566;DHT22;2295;51.050;14.608;2022-12-24T07:56:37;7.30;99.90
4566;DHT22;2295;51.050;14.608;2022-12-24T07:59:05;7.30;99.90
4566;DHT22;2295;51.050;14.608;2022-12-24T08:01:35;7.40;99.90
4566;DHT22;2295;51.050;14.608;2022-12-24T08:04:04;7.50;99.90
4566;DHT22;2295;51.050;14.608;2022-12-24T08:06:33;7.60;99.90
4566;DHT22;2295;51.050;14.608;2022-12-24T08:09:05;7.60;99.90
4566;DHT22;2295;51.050;14.608;2022-12-24T08:11:33;7.70;99.90
4566;DHT22;2295;51.050;14.608;2022-12-24T08:14:02;7.80;99.90
4566;DHT22;2295;51.050;14.608;2022-12-24T08:16:30;7.90;99.90
4566;DHT22;2295;51.050;14.608;2022-12-24T08:19:00;8.00;99.90
4566;DHT22;2295;51.050;14.608;2022-12-24T08:21:29;8.00;99.90
4566;DHT22;2295;51.050;14.608;2022-12-24T08:23:57;8.00;99.90
4566;DHT22;2295;51.050;14.608;2022-12-24T08:26:25;8.00;99.90
4566;DHT22;2295;51.050;14.608;2022-12-24T08:28:54;8.00;99.90
4566;DHT22;2295;51.050;14.608;2022-12-24T08:31:23;7.90;99.90
4566;DHT22;2295;51.050;14.608;2022-12-24T08:33:51;7.90;99.90
4566;DHT22;2295;51.050;14.608;2022-12-24T08:36:21;7.80;99.90
4566;DHT22;2295;51.050;14.608;2022-12-24T08:38:49;7.90;99.90
4566;DHT22;2295;51.050;14.608;2022-12-24T08:41:18;8.00;99.90
4566;DHT22;2295;51.050;14.608;2022-12-24T08:43:47;8.00;99.90
4566;DHT22;2295;51.050;14.608;2022-12-24T08:46:15;8.10;99.90
4566;DHT22;2295;51.050;14.608;2022-12-24T08:48:44;8.20;99.90
4566;DHT22;2295;51.050;14.608;2022-12-24T08:51:12;8.20;99.90
4566;DHT22;2295;51.050;14.608;2022-12-24T08:53:42;8.30;99.90
4566;DHT22;2295;51.050;14.608;2022-12-24T08:56:11;8.40;99.90
4566;DHT22;2295;51.050;14.608;2022-12-24T08:58:39;8.40;99.90
4566;DHT22;2295;51.050;14.608;2022-12-24T09:01:13;8.40;99.90
4566;DHT22;2295;51.050;14.608;2022-12-24T09:03:48;8.40;99.90
4566;DHT22;2295;51.050;14.608;2022-12-24T09:06:16;8.40;99.90
4566;DHT22;2295;51.050;14.608;2022-12-24T09:08:46;8.40;99.90
4566;DHT22;2295;51.050;14.608;2022-12-24T09:11:16;8.30;99.90
4566;DHT22;2295;51.050;14.608;2022-12-24T09:13:46;8.30;99.90
4566;DHT22;2295;51.050;14.608;2022-12-24T09:16:15;8.40;99.90
4566;DHT22;2295;51.050;14.608;2022-12-24T09:18:44;8.40;99.90
4566;DHT22;2295;51.050;14.608;2022-12-24T09:21:14;8.50;99.90
4566;DHT22;2295;51.050;14.608;2022-12-24T09:23:46;8.50;99.90
4566;DHT22;2295;51.050;14.608;2022-12-24T09:26:18;8.60;99.90
4566;DHT22;2295;51.050;14.608;2022-12-24T09:28:47;8.60;99.90
4566;DHT22;2295;51.050;14.608;2022-12-24T09:31:16;8.70;99.90
4566;DHT22;2295;51.050;14.608;2022-12-24T09:33:46;8.60;99.90
4566;DHT22;2295;51.050;14.608;2022-12-24T09:36:14;8.60;99.90
4566;DHT22;2295;51.050;14.608;2022-12-24T09:38:43;8.50;99.90
4566;DHT22;2295;51.050;14.608;2022-12-24T09:41:16;8.40;99.90
4566;DHT22;2295;51.050;14.608;2022-12-24T09:43:53;8.30;99.90
4566;DHT22;2295;51.050;14.608;2022-12-24T09:46:27;8.30;99.90
4566;DHT22;2295;51.050;14.608;2022-12-24T09:49:00;8.20;99.90
4566;DHT22;2295;51.050;14.608;2022-12-24T09:51:35;8.30;99.90
4566;DHT22;2295;51.050;14.608;2022-12-24T09:54:12;8.30;99.90
4566;DHT22;2295;51.050;14.608;2022-12-24T09:56:45;8.30;99.90
4566;DHT22;2295;51.050;14.608;2022-12-24T09:59:16;8.40;99.90
4566;DHT22;2295;51.050;14.608;2022-12-24T10:01:45;8.50;99.90
4566;DHT22;2295;51.050;14.608;2022-12-24T10:04:15;8.50;99.90
4566;DHT22;2295;51.050;14.608;2022-12-24T10:06:49;8.60;99.90
4566;DHT22;2295;51.050;14.608;2022-12-24T10:09:23;8.70;99.90
4566;DHT22;2295;51.050;14.608;2022-12-24T10:12:06;8.80;99.90
4566;DHT22;2295;51.050;14.608;2022-12-24T10:14:48;8.90;99.90
4566;DHT22;2295;51.050;14.608;2022-12-24T10:17:34;9.00;99.90
4566;DHT22;2295;51.050;14.608;2022-12-24T10:20:20;8.90;99.90
4566;DHT22;2295;51.050;14.608;2022-12-24T10:22:54;8.60;99.90
4566;DHT22;2295;51.050;14.608;2022-12-24T10:25:28;8.40;99.90
4566;DHT22;2295;51.050;14.608;2022-12-24T10:28:01;8.20;99.90
4566;DHT22;2295;51.050;14.608;2022-12-24T10:30:36;8.20;99.90
4566;DHT22;2295;51.050;14.608;2022-12-24T10:33:12;8.20;99.90
4566;DHT22;2295;51.050;14.608;2022-12-24T10:35:46;8.30;99.90
4566;DHT22;2295;51.050;14.608;2022-12-24T10:38:16;8.40;99.90
4566;DHT22;2295;51.050;14.608;2022-12-24T10:40:46;8.40;99.90
4566;DHT22;2295;51.050;14.608;2022-12-24T10:43:19;8.50;99.90
4566;DHT22;2295;51.050;14.608;2022-12-24T10:45:50;8.60;99.90
4566;DHT22;2295;51.050;14.608;2022-12-24T10:48:24;8.90;99.90
4566;DHT22;2295;51.050;14.608;2022-12-24T10:51:01;9.10;99.90
4566;DHT22;2295;51.050;14.608;2022-12-24T10:53:37;9.10;99.90
4566;DHT22;2295;51.050;14.608;2022-12-24T10:56:10;8.90;99.90
4566;DHT22;2295;51.050;14.608;2022-12-24T10:58:44;8.80;99.90
4566;DHT22;2295;51.050;14.608;2022-12-24T11:01:13;8.70;99.90
4566;DHT22;2295;51.050;14.608;2022-12-24T11:03:42;8.70;99.90
4566;DHT22;2295;51.050;14.608;2022-12-24T11:06:12;8.70;99.90
4566;DHT22;2295;51.050;14.608;2022-12-24T11:08:42;8.90;99.90
4566;DHT22;2295;51.050;14.608;2022-12-24T11:11:13;9.00;99.90
4566;DHT22;2295;51.050;14.608;2022-12-24T11:13:51;8.90;99.90
4566;DHT22;2295;51.050;14.608;2022-12-24T11:16:23;8.80;99.90
4566;DHT22;2295;51.050;14.608;2022-12-24T11:18:55;8.70;99.90
4566;DHT22;2295;51.050;14.608;2022-12-24T11:21:26;8.60;99.90
4566;DHT22;2295;51.050;14.608;2022-12-24T11:23:59;8.60;99.90
4566;DHT22;2295;51.050;14.608;2022-12-24T11:26:34;8.60;99.90
4566;DHT22;2295;51.050;14.608;2022-12-24T11:29:11;8.70;99.90
4566;DHT22;2295;51.050;14.608;2022-12-24T11:31:41;8.70;99.90
4566;DHT22;2295;51.050;14.608;2022-12-24T11:34:26;8.70;99.90
4566;DHT22;2295;51.050;14.608;2022-12-24T11:37:07;8.60;99.90
4566;DHT22;2295;51.050;14.608;2022-12-24T11:39:44;8.70;99.90
4566;DHT22;2295;51.050;14.608;2022-12-24T11:42:24;8.60;99.90
4566;DHT22;2295;51.050;14.608;2022-12-24T11:44:56;8.70;99.90
4566;DHT22;2295;51.050;14.608;2022-12-24T11:47:34;8.80;99.90
4566;DHT22;2295;51.050;14.608;2022-12-24T11:50:23;8.80;99.90
4566;DHT22;2295;51.050;14.608;2022-12-24T11:52:56;8.80;99.90
4566;DHT22;2295;51.050;14.608;2022-12-24T11:55:35;8.80;99.90
4566;DHT22;2295;51.050;14.608;2022-12-24T11:58:15;8.80;99.90
4566;DHT22;2295;51.050;14.608;2022-12-24T12:00:51;8.80;99.90
4566;DHT22;2295;51.050;14.608;2022-12-24T12:03:28;8.80;99.90
4566;DHT22;2295;51.050;14.608;2022-12-24T12:05:59;8.80;99.90
4566;DHT22;2295;51.050;14.608;2022-12-24T12:08:29;8.80;99.90
4566;DHT22;2295;51.050;14.608;2022-12-24T12:10:59;8.80;99.90
4566;DHT22;2295;51.050;14.608;2022-12-24T12:13:30;8.70;99.90
4566;DHT22;2295;51.050;14.608;2022-12-24T12:16:10;8.70;99.90
4566;DHT22;2295;51.050;14.608;2022-12-24T12:18:46;8.70;99.90
4566;DHT22;2295;51.050;14.608;2022-12-24T12:21:19;8.70;99.90
4566;DHT22;2295;51.050;14.608;2022-12-24T12:23:50;8.70;99.90
4566;DHT22;2295;51.050;14.608;2022-12-24T12:26:22;8.60;99.90
4566;DHT22;2295;51.050;14.608;2022-12-24T12:28:55;8.50;99.90
4566;DHT22;2295;51.050;14.608;2022-12-24T12:31:31;8.40;99.90
4566;DHT22;2295;51.050;14.608;2022-12-24T12:34:04;8.40;99.90
4566;DHT22;2295;51.050;14.608;2022-12-24T12:36:44;8.30;99.90
4566;DHT22;2295;51.050;14.608;2022-12-24T12:39:17;8.30;99.90
4566;DHT22;2295;51.050;14.608;2022-12-24T12:41:53;8.30;99.90
4566;DHT22;2295;51.050;14.608;2022-12-24T12:44:46;8.40;99.90
4566;DHT22;2295;51.050;14.608;2022-12-24T12:50:21;8.50;99.90
4566;DHT22;2295;51.050;14.608;2022-12-24T12:53:03;8.60;99.90
4566;DHT22;2295;51.050;14.608;2022-12-24T12:55:39;8.70;99.90
4566;DHT22;2295;51.050;14.608;2022-12-24T12:58:15;8.70;99.90
4566;DHT22;2295;51.050;14.608;2022-12-24T13:00:56;8.80;99.90
4566;DHT22;2295;51.050;14.608;2022-12-24T13:12:52;8.90;99.90
4566;DHT22;2295;51.050;14.608;2022-12-24T13:15:39;8.90;99.90
4566;DHT22;2295;51.050;14.608;2022-12-24T13:18:41;9.00;99.90
4566;DHT22;2295;51.050;14.608;2022-12-24T13:21:20;9.00;99.90
4566;DHT22;2295;51.050;14.608;2022-12-24T13:23:50;9.00;99.90
4566;DHT22;2295;51.050;14.608;2022-12-24T13:26:19;8.90;99.90
4566;DHT22;2295;51.050;14.608;2022-12-24T13:28:47;8.90;99.90
4566;DHT22;2295;51.050;14.608;2022-12-24T13:31:26;8.90;99.90
4566;DHT22;2295;51.050;14.608;2022-12-24T13:34:01;8.90;99.90
4566;DHT22;2295;51.050;14.608;2022-12-24T13:37:01;8.80;99.90
4566;DHT22;2295;51.050;14.608;2022-12-24T13:43:06;8.60;99.90
4566;DHT22;2295;51.050;14.608;2022-12-24T13:45:53;8.50;99.90
4566;DHT22;2295;51.050;14.608;2022-12-24T13:48:30;8.50;99.90
4566;DHT22;2295;51.050;14.608;2022-12-24T13:51:17;8.40;99.90
4566;DHT22;2295;51.050;14.608;2022-12-24T13:53:47;8.40;99.90
4566;DHT22;2295;51.050;14.608;2022-12-24T13:56:31;8.40;99.90
4566;DHT22;2295;51.050;14.608;2022-12-24T13:59:10;8.30;99.90
4566;DHT22;2295;51.050;14.608;2022-12-24T14:01:42;8.20;99.90
4566;DHT22;2295;51.050;14.608;2022-12-24T14:04:21;8.10;99.90
4566;DHT22;2295;51.050;14.608;2022-12-24T14:06:53;8.10;99.90
4566;DHT22;2295;51.050;14.608;2022-12-24T14:09:24;8.10;99.90
4566;DHT22;2295;51.050;14.608;2022-12-24T14:12:27;8.00;99.90
4566;DHT22;2295;51.050;14.608;2022-12-24T14:14:57;7.90;99.90
4566;DHT22;2295;51.050;14.608;2022-12-24T14:17:27;7.80;99.90
4566;DHT22;2295;51.050;14.608;2022-12-24T14:19:58;7.60;99.90
4566;DHT22;2295;51.050;14.608;2022-12-24T14:22:32;7.50;99.90
4566;DHT22;2295;51.050;14.608;2022-12-24T14:25:03;7.40;99.90
4566;DHT22;2295;51.050;14.608;2022-12-24T14:27:40;7.40;99.90
4566;DHT22;2295;51.050;14.608;2022-12-24T14:30:17;7.40;99.90
4566;DHT22;2295;51.050;14.608;2022-12-24T14:32:48;7.40;99.90
4566;DHT22;2295;51.050;14.608;2022-12-24T14:35:18;7.30;99.90
4566;DHT22;2295;51.050;14.608;2022-12-24T14:37:51;7.30;99.90
4566;DHT22;2295;51.050;14.608;2022-12-24T14:40:29;7.30;99.90
4566;DHT22;2295;51.050;14.608;2022-12-24T14:43:01;7.20;99.90
4566;DHT22;2295;51.050;14.608;2022-12-24T14:45:41;7.10;99.90
4566;DHT22;2295;51.050;14.608;2022-12-24T14:48:18;7.10;99.90
4566;DHT22;2295;51.050;14.608;2022-12-24T14:50:58;7.00;99.90
4566;DHT22;2295;51.050;14.608;2022-12-24T14:53:42;7.00;99.90
4566;DHT22;2295;51.050;14.608;2022-12-24T14:56:17;7.00;99.90
4566;DHT22;2295;51.050;14.608;2022-12-24T14:58:46;7.00;99.90
4566;DHT22;2295;51.050;14.608;2022-12-24T15:01:20;6.90;99.90
4566;DHT22;2295;51.050;14.608;2022-12-24T15:04:00;6.90;99.90
4566;DHT22;2295;51.050;14.608;2022-12-24T15:06:33;6.90;99.90
4566;DHT22;2295;51.050;14.608;2022-12-24T15:09:09;6.90;99.90
4566;DHT22;2295;51.050;14.608;2022-12-24T15:11:42;6.90;99.90
4566;DHT22;2295;51.050;14.608;2022-12-24T15:14:22;6.80;99.90
4566;DHT22;2295;51.050;14.608;2022-12-24T15:16:54;6.80;99.90
4566;DHT22;2295;51.050;14.608;2022-12-24T15:19:27;6.80;99.90
4566;DHT22;2295;51.050;14.608;2022-12-24T15:21:56;6.70;99.90
4566;DHT22;2295;51.050;14.608;2022-12-24T15:24:28;6.70;99.90
4566;DHT22;2295;51.050;14.608;2022-12-24T15:26:59;6.70;99.90
4566;DHT22;2295;51.050;14.608;2022-12-24T15:29:30;6.70;99.90
4566;DHT22;2295;51.050;14.608;2022-12-24T15:32:00;6.70;99.90
4566;DHT22;2295;51.050;14.608;2022-12-24T15:34:36;6.70;99.90
4566;DHT22;2295;51.050;14.608;2022-12-24T15:37:11;6.60;99.90
4566;DHT22;2295;51.050;14.608;2022-12-24T15:39:43;6.60;99.90
4566;DHT22;2295;51.050;14.608;2022-12-24T15:42:16;6.60;99.90
4566;DHT22;2295;51.050;14.608;2022-12-24T15:44:56;6.60;99.90
4566;DHT22;2295;51.050;14.608;2022-12-24T15:47:28;6.50;99.90
4566;DHT22;2295;51.050;14.608;2022-12-24T15:50:04;6.50;99.90
4566;DHT22;2295;51.050;14.608;2022-12-24T15:52:45;6.50;99.90
4566;DHT22;2295;51.050;14.608;2022-12-24T15:55:38;6.50;99.90
4566;DHT22;2295;51.050;14.608;2022-12-24T15:58:14;6.50;99.90
4566;DHT22;2295;51.050;14.608;2022-12-24T16:01:02;6.50;99.90
4566;DHT22;2295;51.050;14.608;2022-12-24T16:03:31;6.50;99.90
4566;DHT22;2295;51.050;14.608;2022-12-24T16:06:01;6.50;99.90
4566;DHT22;2295;51.050;14.608;2022-12-24T16:08:31;6.40;99.90
4566;DHT22;2295;51.050;14.608;2022-12-24T16:11:13;6.50;99.90
4566;DHT22;2295;51.050;14.608;2022-12-24T16:14:02;6.50;99.90
4566;DHT22;2295;51.050;14.608;2022-12-24T16:16:34;6.50;99.90
4566;DHT22;2295;51.050;14.608;2022-12-24T16:19:04;6.50;99.90
4566;DHT22;2295;51.050;14.608;2022-12-24T16:21:36;6.50;99.90
4566;DHT22;2295;51.050;14.608;2022-12-24T16:24:12;6.50;99.90
4566;DHT22;2295;51.050;14.608;2022-12-24T16:26:47;6.60;99.90
4566;DHT22;2295;51.050;14.608;2022-12-24T16:29:20;6.70;99.90
4566;DHT22;2295;51.050;14.608;2022-12-24T16:31:58;6.70;99.90
4566;DHT22;2295;51.050;14.608;2022-12-24T16:34:56;6.70;99.90
4566;DHT22;2295;51.050;14.608;2022-12-24T16:37:30;6.70;99.90
4566;DHT22;2295;51.050;14.608;2022-12-24T16:40:03;6.70;99.90
4566;DHT22;2295;51.050;14.608;2022-12-24T16:42:41;6.70;99.90
4566;DHT22;2295;51.050;14.608;2022-12-24T16:45:28;6.70;99.90
4566;DHT22;2295;51.050;14.608;2022-12-24T16:47:58;6.60;99.90
4566;DHT22;2295;51.050;14.608;2022-12-24T16:50:33;6.70;99.90
4566;DHT22;2295;51.050;14.608;2022-12-24T16:53:02;6.70;99.90
4566;DHT22;2295;51.050;14.608;2022-12-24T16:55:30;6.60;99.90
4566;DHT22;2295;51.050;14.608;2022-12-24T16:58:00;6.50;99.90